<?xml version="1.0" encoding="UTF-8" standalone="no" ?>
<gpx xmlns="http://www.topografix.com/GPX/1/1" xmlns:xsi="http://www.w3.org/2001/XMLSchema-instance" xsi:schemaLocation="http://www.topografix.com/GPX/1/1 http://www.topografix.com/GPX/1/1/gpx.xsd" version="1.1" creator="VisuGPX - https://www.visugpx.com">
  <metadata>
    <name>GTA Raids 1+2+3</name>
    <desc><![CDATA[#GTA]]></desc>
  </metadata>
  <trk>
    <name><![CDATA[GTA 02B - De Sospel à Moulinet via GR52]]></name>
    <extensions>
      <line xmlns="http://www.topografix.com/GPX/gpx_style/0/2">
        <color>05ff50</color>
        <width>4</width>
      </line>
    </extensions>
    <trkseg>
      <trkpt lat="43.8776" lon="7.44846">
        <ele>350.557128</ele>
        <time>2022-10-18T17:02:52.169Z</time>
      </trkpt>
      <trkpt lat="43.87778" lon="7.44863">
        <ele>350.557128</ele>
        <time>2022-10-18T17:03:17.799Z</time>
      </trkpt>
      <trkpt lat="43.87776" lon="7.44905">
        <ele>350.557128</ele>
        <time>2022-10-18T17:03:54.081Z</time>
      </trkpt>
      <trkpt lat="43.87781" lon="7.44908">
        <ele>350.557128</ele>
        <time>2022-10-18T17:04:00.731Z</time>
      </trkpt>
      <trkpt lat="43.87794" lon="7.44915">
        <ele>350.557128</ele>
        <time>2022-10-18T17:04:18.779Z</time>
      </trkpt>
      <trkpt lat="43.87799" lon="7.44917">
        <ele>350.557128</ele>
        <time>2022-10-18T17:04:25.682Z</time>
      </trkpt>
      <trkpt lat="43.87814" lon="7.44925">
        <ele>350.627151</ele>
        <time>2022-10-18T17:04:45.007Z</time>
      </trkpt>
      <trkpt lat="43.87824" lon="7.44929">
        <ele>351.008124</ele>
        <time>2022-10-18T17:04:58.038Z</time>
      </trkpt>
      <trkpt lat="43.87826" lon="7.44921">
        <ele>351.245458</ele>
        <time>2022-10-18T17:05:06.161Z</time>
      </trkpt>
      <trkpt lat="43.87829" lon="7.44907">
        <ele>351.624459</ele>
        <time>2022-10-18T17:05:19.321Z</time>
      </trkpt>
      <trkpt lat="43.87832" lon="7.44892">
        <ele>352.045821</ele>
        <time>2022-10-18T17:05:33.427Z</time>
      </trkpt>
      <trkpt lat="43.87832" lon="7.44884">
        <ele>352.25632</ele>
        <time>2022-10-18T17:05:40.692Z</time>
      </trkpt>
      <trkpt lat="43.87865" lon="7.44869">
        <ele>353.525612</ele>
        <time>2022-10-18T17:06:25.064Z</time>
      </trkpt>
      <trkpt lat="43.87866" lon="7.44858">
        <ele>353.830904</ele>
        <time>2022-10-18T17:06:35.395Z</time>
      </trkpt>
      <trkpt lat="43.87876" lon="7.4486">
        <ele>354.173419</ele>
        <time>2022-10-18T17:06:49.221Z</time>
      </trkpt>
      <trkpt lat="43.87879" lon="7.4484">
        <ele>354.719012</ele>
        <time>2022-10-18T17:07:10.294Z</time>
      </trkpt>
      <trkpt lat="43.8789" lon="7.44841">
        <ele>355.147169</ele>
        <time>2022-10-18T17:07:25.805Z</time>
      </trkpt>
      <trkpt lat="43.87907" lon="7.44837">
        <ele>355.788525</ele>
        <time>2022-10-18T17:07:51.804Z</time>
      </trkpt>
      <trkpt lat="43.87915" lon="7.44829">
        <ele>356.129153</ele>
        <time>2022-10-18T17:08:05.501Z</time>
      </trkpt>
      <trkpt lat="43.8791" lon="7.44812">
        <ele>356.617588</ele>
        <time>2022-10-18T17:08:24.313Z</time>
      </trkpt>
      <trkpt lat="43.8791" lon="7.44773">
        <ele>358.160334</ele>
        <time>2022-10-18T17:09:05.912Z</time>
      </trkpt>
      <trkpt lat="43.87935" lon="7.44786">
        <ele>360.186964</ele>
        <time>2022-10-18T17:09:46.142Z</time>
      </trkpt>
      <trkpt lat="43.8793" lon="7.44772">
        <ele>361.038108</ele>
        <time>2022-10-18T17:10:01.996Z</time>
      </trkpt>
      <trkpt lat="43.87955" lon="7.44743">
        <ele>363.451457</ele>
        <time>2022-10-18T17:10:49.584Z</time>
      </trkpt>
      <trkpt lat="43.88047" lon="7.44663">
        <ele>372.033936</ele>
        <time>2022-10-18T17:13:37.204Z</time>
      </trkpt>
      <trkpt lat="43.88077" lon="7.44627">
        <ele>376.251029</ele>
        <time>2022-10-18T17:14:40.632Z</time>
      </trkpt>
      <trkpt lat="43.88084" lon="7.44611">
        <ele>377.716214</ele>
        <time>2022-10-18T17:15:01.086Z</time>
      </trkpt>
      <trkpt lat="43.88095" lon="7.4459">
        <ele>379.629737</ele>
        <time>2022-10-18T17:15:29.077Z</time>
      </trkpt>
      <trkpt lat="43.88138" lon="7.44537">
        <ele>385.843413</ele>
        <time>2022-10-18T17:17:02.485Z</time>
      </trkpt>
      <trkpt lat="43.88154" lon="7.44526">
        <ele>387.732717</ele>
        <time>2022-10-18T17:17:36.886Z</time>
      </trkpt>
      <trkpt lat="43.88206" lon="7.44516">
        <ele>394.181169</ele>
        <time>2022-10-18T17:19:20.027Z</time>
      </trkpt>
      <trkpt lat="43.88235" lon="7.44498">
        <ele>398.355977</ele>
        <time>2022-10-18T17:20:20.565Z</time>
      </trkpt>
      <trkpt lat="43.88242" lon="7.44502">
        <ele>399.370016</ele>
        <time>2022-10-18T17:20:36.717Z</time>
      </trkpt>
      <trkpt lat="43.88281" lon="7.44514">
        <ele>404.599233</ele>
        <time>2022-10-18T17:21:49.724Z</time>
      </trkpt>
      <trkpt lat="43.88334" lon="7.44537">
        <ele>411.944615</ele>
        <time>2022-10-18T17:23:20.341Z</time>
      </trkpt>
      <trkpt lat="43.8835" lon="7.44538">
        <ele>414.087798</ele>
        <time>2022-10-18T17:23:46.010Z</time>
      </trkpt>
      <trkpt lat="43.88392" lon="7.44553">
        <ele>420.056147</ele>
        <time>2022-10-18T17:25:10.444Z</time>
      </trkpt>
      <trkpt lat="43.88397" lon="7.44547">
        <ele>420.974225</ele>
        <time>2022-10-18T17:25:22.118Z</time>
      </trkpt>
      <trkpt lat="43.884" lon="7.44513">
        <ele>424.331991</ele>
        <time>2022-10-18T17:26:12.866Z</time>
      </trkpt>
      <trkpt lat="43.88403" lon="7.4449">
        <ele>426.654476</ele>
        <time>2022-10-18T17:26:42.142Z</time>
      </trkpt>
      <trkpt lat="43.88387" lon="7.44416">
        <ele>434.306273</ele>
        <time>2022-10-18T17:28:28.269Z</time>
      </trkpt>
      <trkpt lat="43.88398" lon="7.44396">
        <ele>436.766676</ele>
        <time>2022-10-18T17:28:56.792Z</time>
      </trkpt>
      <trkpt lat="43.88408" lon="7.4439">
        <ele>438.289924</ele>
        <time>2022-10-18T17:29:25.166Z</time>
      </trkpt>
      <trkpt lat="43.88505" lon="7.44379">
        <ele>452.672058</ele>
        <time>2022-10-18T17:32:23.413Z</time>
      </trkpt>
      <trkpt lat="43.88547" lon="7.4438">
        <ele>458.851743</ele>
        <time>2022-10-18T17:34:00.814Z</time>
      </trkpt>
      <trkpt lat="43.88599" lon="7.44397">
        <ele>466.494956</ele>
        <time>2022-10-18T17:35:44.217Z</time>
      </trkpt>
      <trkpt lat="43.8861" lon="7.44394">
        <ele>467.901957</ele>
        <time>2022-10-18T17:36:03.119Z</time>
      </trkpt>
      <trkpt lat="43.88632" lon="7.44406">
        <ele>470.713199</ele>
        <time>2022-10-18T17:36:42.271Z</time>
      </trkpt>
      <trkpt lat="43.88668" lon="7.44411">
        <ele>475.180362</ele>
        <time>2022-10-18T17:37:40.804Z</time>
      </trkpt>
      <trkpt lat="43.88699" lon="7.44398">
        <ele>479.16834</ele>
        <time>2022-10-18T17:38:31.531Z</time>
      </trkpt>
      <trkpt lat="43.88725" lon="7.44401">
        <ele>482.309235</ele>
        <time>2022-10-18T17:39:17.395Z</time>
      </trkpt>
      <trkpt lat="43.88724" lon="7.44407">
        <ele>482.785233</ele>
        <time>2022-10-18T17:39:25.296Z</time>
      </trkpt>
      <trkpt lat="43.88701" lon="7.44413">
        <ele>485.66232</ele>
        <time>2022-10-18T17:40:07.726Z</time>
      </trkpt>
      <trkpt lat="43.88696" lon="7.44421">
        <ele>486.55006</ele>
        <time>2022-10-18T17:40:21.857Z</time>
      </trkpt>
      <trkpt lat="43.88722" lon="7.44423">
        <ele>489.990983</ele>
        <time>2022-10-18T17:41:11.533Z</time>
      </trkpt>
      <trkpt lat="43.88768" lon="7.44461">
        <ele>497.07827</ele>
        <time>2022-10-18T17:42:52.441Z</time>
      </trkpt>
      <trkpt lat="43.88789" lon="7.44461">
        <ele>499.834581</ele>
        <time>2022-10-18T17:43:30.280Z</time>
      </trkpt>
      <trkpt lat="43.88806" lon="7.44462">
        <ele>502.049036</ele>
        <time>2022-10-18T17:43:59.052Z</time>
      </trkpt>
      <trkpt lat="43.88844" lon="7.44481">
        <ele>507.357179</ele>
        <time>2022-10-18T17:45:09.953Z</time>
      </trkpt>
      <trkpt lat="43.88869" lon="7.44482">
        <ele>510.724089</ele>
        <time>2022-10-18T17:45:55.928Z</time>
      </trkpt>
      <trkpt lat="43.88897" lon="7.44498">
        <ele>513.453625</ele>
        <time>2022-10-18T17:46:51.917Z</time>
      </trkpt>
      <trkpt lat="43.88915" lon="7.44519">
        <ele>515.514975</ele>
        <time>2022-10-18T17:47:32.379Z</time>
      </trkpt>
      <trkpt lat="43.88922" lon="7.44516">
        <ele>516.138177</ele>
        <time>2022-10-18T17:47:47.381Z</time>
      </trkpt>
      <trkpt lat="43.88928" lon="7.44491">
        <ele>517.788694</ele>
        <time>2022-10-18T17:48:18.376Z</time>
      </trkpt>
      <trkpt lat="43.88934" lon="7.44486">
        <ele>518.356082</ele>
        <time>2022-10-18T17:48:27.759Z</time>
      </trkpt>
      <trkpt lat="43.88931" lon="7.44503">
        <ele>519.435491</ele>
        <time>2022-10-18T17:48:47.337Z</time>
      </trkpt>
      <trkpt lat="43.88944" lon="7.44575">
        <ele>524.17687</ele>
        <time>2022-10-18T17:50:03.682Z</time>
      </trkpt>
      <trkpt lat="43.88956" lon="7.44519">
        <ele>527.141554</ele>
        <time>2022-10-18T17:51:02.692Z</time>
      </trkpt>
      <trkpt lat="43.88961" lon="7.44577">
        <ele>528.612949</ele>
        <time>2022-10-18T17:52:00.730Z</time>
      </trkpt>
      <trkpt lat="43.88972" lon="7.44536">
        <ele>529.707631</ele>
        <time>2022-10-18T17:52:42.340Z</time>
      </trkpt>
      <trkpt lat="43.88976" lon="7.44536">
        <ele>529.857606</ele>
        <time>2022-10-18T17:52:48.142Z</time>
      </trkpt>
      <trkpt lat="43.88972" lon="7.4456">
        <ele>530.486416</ele>
        <time>2022-10-18T17:53:12.057Z</time>
      </trkpt>
      <trkpt lat="43.88976" lon="7.44574">
        <ele>530.859669</ele>
        <time>2022-10-18T17:53:26.120Z</time>
      </trkpt>
      <trkpt lat="43.88992" lon="7.44598">
        <ele>531.666395</ele>
        <time>2022-10-18T17:53:56.849Z</time>
      </trkpt>
      <trkpt lat="43.88986" lon="7.44576">
        <ele>532.243404</ele>
        <time>2022-10-18T17:54:18.771Z</time>
      </trkpt>
      <trkpt lat="43.88989" lon="7.44561">
        <ele>532.657917</ele>
        <time>2022-10-18T17:54:33.611Z</time>
      </trkpt>
      <trkpt lat="43.88993" lon="7.44561">
        <ele>532.773307</ele>
        <time>2022-10-18T17:54:38.454Z</time>
      </trkpt>
      <trkpt lat="43.88994" lon="7.44578">
        <ele>533.226842</ele>
        <time>2022-10-18T17:54:54.908Z</time>
      </trkpt>
      <trkpt lat="43.89006" lon="7.44597">
        <ele>533.951028</ele>
        <time>2022-10-18T17:55:18.369Z</time>
      </trkpt>
      <trkpt lat="43.89004" lon="7.44574">
        <ele>534.606733</ele>
        <time>2022-10-18T17:55:41.069Z</time>
      </trkpt>
      <trkpt lat="43.89014" lon="7.4457">
        <ele>535.035656</ele>
        <time>2022-10-18T17:55:55.356Z</time>
      </trkpt>
      <trkpt lat="43.89011" lon="7.44583">
        <ele>535.409491</ele>
        <time>2022-10-18T17:56:07.109Z</time>
      </trkpt>
      <trkpt lat="43.89024" lon="7.44613">
        <ele>536.422729</ele>
        <time>2022-10-18T17:56:42.963Z</time>
      </trkpt>
      <trkpt lat="43.89019" lon="7.44631">
        <ele>536.985237</ele>
        <time>2022-10-18T17:57:01.731Z</time>
      </trkpt>
      <trkpt lat="43.8903" lon="7.44618">
        <ele>537.560121</ele>
        <time>2022-10-18T17:57:22.824Z</time>
      </trkpt>
      <trkpt lat="43.89028" lon="7.44591">
        <ele>538.358584</ele>
        <time>2022-10-18T17:57:47.407Z</time>
      </trkpt>
      <trkpt lat="43.89033" lon="7.4458">
        <ele>538.713333</ele>
        <time>2022-10-18T17:58:00.740Z</time>
      </trkpt>
      <trkpt lat="43.89049" lon="7.44641">
        <ele>540.856712</ele>
        <time>2022-10-18T17:59:06.528Z</time>
      </trkpt>
      <trkpt lat="43.89048" lon="7.44613">
        <ele>542.139436</ele>
        <time>2022-10-18T17:59:35.491Z</time>
      </trkpt>
      <trkpt lat="43.89053" lon="7.44598">
        <ele>542.89227</ele>
        <time>2022-10-18T17:59:55.118Z</time>
      </trkpt>
      <trkpt lat="43.89083" lon="7.44591">
        <ele>544.779975</ele>
        <time>2022-10-18T18:00:38.473Z</time>
      </trkpt>
      <trkpt lat="43.89085" lon="7.44595">
        <ele>545.013548</ele>
        <time>2022-10-18T18:00:44.342Z</time>
      </trkpt>
      <trkpt lat="43.89065" lon="7.4461">
        <ele>546.413391</ele>
        <time>2022-10-18T18:01:14.291Z</time>
      </trkpt>
      <trkpt lat="43.89065" lon="7.44621">
        <ele>546.947974</ele>
        <time>2022-10-18T18:01:26.607Z</time>
      </trkpt>
      <trkpt lat="43.89108" lon="7.44654">
        <ele>550.042389</ele>
        <time>2022-10-18T18:02:40.415Z</time>
      </trkpt>
      <trkpt lat="43.89139" lon="7.44693">
        <ele>554.241258</ele>
        <time>2022-10-18T18:03:45.338Z</time>
      </trkpt>
      <trkpt lat="43.89122" lon="7.44628">
        <ele>561.153194</ele>
        <time>2022-10-18T18:04:55.912Z</time>
      </trkpt>
      <trkpt lat="43.89153" lon="7.44602">
        <ele>566.085444</ele>
        <time>2022-10-18T18:05:52.289Z</time>
      </trkpt>
      <trkpt lat="43.89167" lon="7.44582">
        <ele>568.875334</ele>
        <time>2022-10-18T18:06:43.600Z</time>
      </trkpt>
      <trkpt lat="43.89174" lon="7.44539">
        <ele>573.334343</ele>
        <time>2022-10-18T18:07:53.745Z</time>
      </trkpt>
      <trkpt lat="43.89175" lon="7.44595">
        <ele>581.723916</ele>
        <time>2022-10-18T18:09:48.842Z</time>
      </trkpt>
      <trkpt lat="43.89198" lon="7.44527">
        <ele>596.848664</ele>
        <time>2022-10-18T18:12:22.657Z</time>
      </trkpt>
      <trkpt lat="43.89206" lon="7.44519">
        <ele>599.735225</ele>
        <time>2022-10-18T18:12:46.574Z</time>
      </trkpt>
      <trkpt lat="43.89217" lon="7.44521">
        <ele>602.906398</ele>
        <time>2022-10-18T18:13:42.195Z</time>
      </trkpt>
      <trkpt lat="43.89211" lon="7.44542">
        <ele>607.471461</ele>
        <time>2022-10-18T18:14:08.198Z</time>
      </trkpt>
      <trkpt lat="43.8922" lon="7.44568">
        <ele>613.277382</ele>
        <time>2022-10-18T18:15:26.684Z</time>
      </trkpt>
      <trkpt lat="43.89211" lon="7.44587">
        <ele>617.873231</ele>
        <time>2022-10-18T18:15:50.855Z</time>
      </trkpt>
      <trkpt lat="43.8923" lon="7.44595">
        <ele>623.230337</ele>
        <time>2022-10-18T18:17:07.624Z</time>
      </trkpt>
      <trkpt lat="43.8923" lon="7.44604">
        <ele>625.154631</ele>
        <time>2022-10-18T18:17:22.602Z</time>
      </trkpt>
      <trkpt lat="43.89242" lon="7.44625">
        <ele>629.529239</ele>
        <time>2022-10-18T18:18:15.493Z</time>
      </trkpt>
      <trkpt lat="43.89243" lon="7.44647">
        <ele>632.715502</ele>
        <time>2022-10-18T18:19:18.437Z</time>
      </trkpt>
      <trkpt lat="43.89252" lon="7.44666">
        <ele>636.12111</ele>
        <time>2022-10-18T18:19:56.741Z</time>
      </trkpt>
      <trkpt lat="43.89281" lon="7.44698">
        <ele>643.753931</ele>
        <time>2022-10-18T18:21:54.223Z</time>
      </trkpt>
      <trkpt lat="43.8929" lon="7.4473">
        <ele>648.745556</ele>
        <time>2022-10-18T18:22:47.237Z</time>
      </trkpt>
      <trkpt lat="43.89297" lon="7.4473">
        <ele>650.090975</ele>
        <time>2022-10-18T18:23:00.905Z</time>
      </trkpt>
      <trkpt lat="43.89312" lon="7.4475">
        <ele>654.160419</ele>
        <time>2022-10-18T18:23:46.130Z</time>
      </trkpt>
      <trkpt lat="43.89315" lon="7.44772">
        <ele>657.526416</ele>
        <time>2022-10-18T18:24:14.195Z</time>
      </trkpt>
      <trkpt lat="43.89332" lon="7.44743">
        <ele>662.99454</ele>
        <time>2022-10-18T18:24:51.760Z</time>
      </trkpt>
      <trkpt lat="43.89345" lon="7.44733">
        <ele>664.417097</ele>
        <time>2022-10-18T18:25:13.059Z</time>
      </trkpt>
      <trkpt lat="43.89361" lon="7.44732">
        <ele>665.702613</ele>
        <time>2022-10-18T18:25:34.743Z</time>
      </trkpt>
      <trkpt lat="43.89386" lon="7.44711">
        <ele>667.981323</ele>
        <time>2022-10-18T18:26:18.288Z</time>
      </trkpt>
      <trkpt lat="43.89414" lon="7.44716">
        <ele>670.1694</ele>
        <time>2022-10-18T18:27:02.916Z</time>
      </trkpt>
      <trkpt lat="43.8942" lon="7.44703">
        <ele>671.076601</ele>
        <time>2022-10-18T18:27:20.139Z</time>
      </trkpt>
      <trkpt lat="43.89448" lon="7.44679">
        <ele>673.625805</ele>
        <time>2022-10-18T18:28:13.212Z</time>
      </trkpt>
      <trkpt lat="43.89478" lon="7.44609">
        <ele>678.109811</ele>
        <time>2022-10-18T18:29:38.031Z</time>
      </trkpt>
      <trkpt lat="43.89505" lon="7.44605">
        <ele>679.91984</ele>
        <time>2022-10-18T18:30:18.649Z</time>
      </trkpt>
      <trkpt lat="43.8953" lon="7.44593">
        <ele>681.698563</ele>
        <time>2022-10-18T18:30:55.873Z</time>
      </trkpt>
      <trkpt lat="43.89562" lon="7.44594">
        <ele>683.847727</ele>
        <time>2022-10-18T18:31:40.968Z</time>
      </trkpt>
      <trkpt lat="43.89574" lon="7.44584">
        <ele>684.809952</ele>
        <time>2022-10-18T18:32:03.046Z</time>
      </trkpt>
      <trkpt lat="43.89617" lon="7.44509">
        <ele>689.39625</ele>
        <time>2022-10-18T18:33:47.636Z</time>
      </trkpt>
      <trkpt lat="43.89612" lon="7.44543">
        <ele>691.849947</ele>
        <time>2022-10-18T18:34:23.282Z</time>
      </trkpt>
      <trkpt lat="43.89591" lon="7.44603">
        <ele>696.875273</ele>
        <time>2022-10-18T18:35:34.700Z</time>
      </trkpt>
      <trkpt lat="43.89626" lon="7.44545">
        <ele>702.54507</ele>
        <time>2022-10-18T18:37:00.316Z</time>
      </trkpt>
      <trkpt lat="43.89671" lon="7.44485">
        <ele>710.019722</ele>
        <time>2022-10-18T18:38:58.455Z</time>
      </trkpt>
      <trkpt lat="43.89733" lon="7.44444">
        <ele>725.447286</ele>
        <time>2022-10-18T18:41:35.631Z</time>
      </trkpt>
      <trkpt lat="43.89768" lon="7.44435">
        <ele>733.493456</ele>
        <time>2022-10-18T18:43:18.110Z</time>
      </trkpt>
      <trkpt lat="43.89772" lon="7.44424">
        <ele>735.50158</ele>
        <time>2022-10-18T18:43:40.244Z</time>
      </trkpt>
      <trkpt lat="43.89783" lon="7.44396">
        <ele>740.775291</ele>
        <time>2022-10-18T18:44:52.040Z</time>
      </trkpt>
      <trkpt lat="43.89789" lon="7.44327">
        <ele>751.792781</ele>
        <time>2022-10-18T18:47:07.617Z</time>
      </trkpt>
      <trkpt lat="43.89811" lon="7.44332">
        <ele>756.410183</ele>
        <time>2022-10-18T18:48:13.549Z</time>
      </trkpt>
      <trkpt lat="43.89841" lon="7.44325">
        <ele>762.597155</ele>
        <time>2022-10-18T18:49:34.692Z</time>
      </trkpt>
      <trkpt lat="43.89892" lon="7.44324">
        <ele>773.243218</ele>
        <time>2022-10-18T18:51:31.761Z</time>
      </trkpt>
      <trkpt lat="43.89877" lon="7.44289">
        <ele>779.252979</ele>
        <time>2022-10-18T18:52:36.883Z</time>
      </trkpt>
      <trkpt lat="43.89957" lon="7.44269">
        <ele>792.868117</ele>
        <time>2022-10-18T18:55:20.334Z</time>
      </trkpt>
      <trkpt lat="43.89956" lon="7.44289">
        <ele>794.886131</ele>
        <time>2022-10-18T18:55:43.599Z</time>
      </trkpt>
      <trkpt lat="43.8996" lon="7.44293">
        <ele>795.533679</ele>
        <time>2022-10-18T18:55:50.842Z</time>
      </trkpt>
      <trkpt lat="43.8997" lon="7.44298">
        <ele>797.063298</ele>
        <time>2022-10-18T18:56:08.528Z</time>
      </trkpt>
      <trkpt lat="43.89983" lon="7.44294">
        <ele>798.971488</ele>
        <time>2022-10-18T18:56:32.111Z</time>
      </trkpt>
      <trkpt lat="43.9001" lon="7.44276">
        <ele>803.221602</ele>
        <time>2022-10-18T18:57:24.337Z</time>
      </trkpt>
      <trkpt lat="43.9004" lon="7.44272">
        <ele>807.458562</ele>
        <time>2022-10-18T18:58:21.383Z</time>
      </trkpt>
      <trkpt lat="43.90054" lon="7.44236">
        <ele>811.687827</ele>
        <time>2022-10-18T18:59:19.932Z</time>
      </trkpt>
      <trkpt lat="43.90147" lon="7.4418">
        <ele>828.0217</ele>
        <time>2022-10-18T19:02:45.395Z</time>
      </trkpt>
      <trkpt lat="43.90182" lon="7.44177">
        <ele>833.714116</ele>
        <time>2022-10-18T19:04:01.226Z</time>
      </trkpt>
      <trkpt lat="43.90273" lon="7.44144">
        <ele>847.899386</ele>
        <time>2022-10-18T19:07:20.242Z</time>
      </trkpt>
      <trkpt lat="43.90283" lon="7.44148">
        <ele>849.298908</ele>
        <time>2022-10-18T19:07:41.385Z</time>
      </trkpt>
      <trkpt lat="43.90313" lon="7.44158">
        <ele>853.701678</ele>
        <time>2022-10-18T19:08:39.931Z</time>
      </trkpt>
      <trkpt lat="43.90343" lon="7.44177">
        <ele>858.316978</ele>
        <time>2022-10-18T19:09:36.866Z</time>
      </trkpt>
      <trkpt lat="43.90406" lon="7.44186">
        <ele>867.349387</ele>
        <time>2022-10-18T19:11:25.494Z</time>
      </trkpt>
      <trkpt lat="43.90459" lon="7.44186">
        <ele>875.302976</ele>
        <time>2022-10-18T19:12:57.604Z</time>
      </trkpt>
      <trkpt lat="43.90481" lon="7.44171">
        <ele>878.989213</ele>
        <time>2022-10-18T19:13:41.510Z</time>
      </trkpt>
      <trkpt lat="43.90496" lon="7.44141">
        <ele>882.914522</ele>
        <time>2022-10-18T19:14:33.119Z</time>
      </trkpt>
      <trkpt lat="43.90496" lon="7.44114">
        <ele>885.86594</ele>
        <time>2022-10-18T19:15:12.110Z</time>
      </trkpt>
      <trkpt lat="43.90521" lon="7.44079">
        <ele>891.097236</ele>
        <time>2022-10-18T19:16:29.216Z</time>
      </trkpt>
      <trkpt lat="43.90563" lon="7.43997">
        <ele>905.948074</ele>
        <time>2022-10-18T19:19:21.573Z</time>
      </trkpt>
      <trkpt lat="43.90591" lon="7.43978">
        <ele>912.590595</ele>
        <time>2022-10-18T19:20:40.485Z</time>
      </trkpt>
      <trkpt lat="43.90612" lon="7.43901">
        <ele>925.394136</ele>
        <time>2022-10-18T19:23:11.267Z</time>
      </trkpt>
      <trkpt lat="43.90696" lon="7.43867">
        <ele>943.651588</ele>
        <time>2022-10-18T19:26:55.855Z</time>
      </trkpt>
      <trkpt lat="43.90742" lon="7.43869">
        <ele>953.299607</ele>
        <time>2022-10-18T19:28:44.490Z</time>
      </trkpt>
      <trkpt lat="43.90758" lon="7.43862">
        <ele>956.722035</ele>
        <time>2022-10-18T19:29:25.237Z</time>
      </trkpt>
      <trkpt lat="43.90779" lon="7.43878">
        <ele>961.720711</ele>
        <time>2022-10-18T19:30:16.210Z</time>
      </trkpt>
      <trkpt lat="43.90794" lon="7.43882">
        <ele>964.811654</ele>
        <time>2022-10-18T19:30:52.488Z</time>
      </trkpt>
      <trkpt lat="43.9082" lon="7.43886">
        <ele>970.82802</ele>
        <time>2022-10-18T19:31:53.780Z</time>
      </trkpt>
      <trkpt lat="43.90871" lon="7.43868">
        <ele>984.804143</ele>
        <time>2022-10-18T19:33:54.262Z</time>
      </trkpt>
      <trkpt lat="43.909" lon="7.43849">
        <ele>993.406224</ele>
        <time>2022-10-18T19:35:17.934Z</time>
      </trkpt>
      <trkpt lat="43.909" lon="7.43821">
        <ele>998.865107</ele>
        <time>2022-10-18T19:36:24.882Z</time>
      </trkpt>
      <trkpt lat="43.90945" lon="7.43776">
        <ele>1013.792924</ele>
        <time>2022-10-18T19:39:26.212Z</time>
      </trkpt>
      <trkpt lat="43.91001" lon="7.43741">
        <ele>1032.105984</ele>
        <time>2022-10-18T19:42:46.529Z</time>
      </trkpt>
      <trkpt lat="43.9103" lon="7.4374">
        <ele>1041.173413</ele>
        <time>2022-10-18T19:44:24.725Z</time>
      </trkpt>
      <trkpt lat="43.91074" lon="7.43748">
        <ele>1055.065467</ele>
        <time>2022-10-18T19:46:42.968Z</time>
      </trkpt>
      <trkpt lat="43.91147" lon="7.4374">
        <ele>1075.566541</ele>
        <time>2022-10-18T19:50:24.115Z</time>
      </trkpt>
      <trkpt lat="43.91121" lon="7.43686">
        <ele>1084.071227</ele>
        <time>2022-10-18T19:52:28.167Z</time>
      </trkpt>
      <trkpt lat="43.91121" lon="7.43671">
        <ele>1086.096197</ele>
        <time>2022-10-18T19:52:50.219Z</time>
      </trkpt>
      <trkpt lat="43.91135" lon="7.43675">
        <ele>1088.748965</ele>
        <time>2022-10-18T19:53:22.954Z</time>
      </trkpt>
      <trkpt lat="43.91146" lon="7.43656">
        <ele>1091.931328</ele>
        <time>2022-10-18T19:53:53.986Z</time>
      </trkpt>
      <trkpt lat="43.91152" lon="7.43666">
        <ele>1093.734106</ele>
        <time>2022-10-18T19:54:14.132Z</time>
      </trkpt>
      <trkpt lat="43.91205" lon="7.43675">
        <ele>1103.321095</ele>
        <time>2022-10-18T19:55:42.340Z</time>
      </trkpt>
      <trkpt lat="43.91216" lon="7.43683">
        <ele>1105.734124</ele>
        <time>2022-10-18T19:56:01.352Z</time>
      </trkpt>
      <trkpt lat="43.91243" lon="7.43679">
        <ele>1111.436619</ele>
        <time>2022-10-18T19:56:45.254Z</time>
      </trkpt>
      <trkpt lat="43.91303" lon="7.43645">
        <ele>1125.159815</ele>
        <time>2022-10-18T19:59:07.862Z</time>
      </trkpt>
      <trkpt lat="43.91374" lon="7.43638">
        <ele>1140.037911</ele>
        <time>2022-10-18T20:02:28.130Z</time>
      </trkpt>
      <trkpt lat="43.91525" lon="7.4365">
        <ele>1182.198426</ele>
        <time>2022-10-18T20:10:12.825Z</time>
      </trkpt>
      <trkpt lat="43.91619" lon="7.43669">
        <ele>1207.310236</ele>
        <time>2022-10-18T20:14:40.960Z</time>
      </trkpt>
      <trkpt lat="43.91706" lon="7.43712">
        <ele>1229.606088</ele>
        <time>2022-10-18T20:18:22.945Z</time>
      </trkpt>
      <trkpt lat="43.91937" lon="7.43695">
        <ele>1289.104471</ele>
        <time>2022-10-18T20:29:32.181Z</time>
      </trkpt>
      <trkpt lat="43.92011" lon="7.43666">
        <ele>1303.448826</ele>
        <time>2022-10-18T20:32:38.073Z</time>
      </trkpt>
      <trkpt lat="43.92076" lon="7.43649">
        <ele>1315.735179</ele>
        <time>2022-10-18T20:34:51.332Z</time>
      </trkpt>
      <trkpt lat="43.92146" lon="7.43659">
        <ele>1325.020281</ele>
        <time>2022-10-18T20:36:49.539Z</time>
      </trkpt>
      <trkpt lat="43.92169" lon="7.43678">
        <ele>1327.896454</ele>
        <time>2022-10-18T20:37:32.402Z</time>
      </trkpt>
      <trkpt lat="43.9221" lon="7.43685">
        <ele>1332.429734</ele>
        <time>2022-10-18T20:38:40.687Z</time>
      </trkpt>
      <trkpt lat="43.92299" lon="7.43745">
        <ele>1340.952559</ele>
        <time>2022-10-18T20:41:18.045Z</time>
      </trkpt>
      <trkpt lat="43.92364" lon="7.4377">
        <ele>1344.207813</ele>
        <time>2022-10-18T20:42:59.955Z</time>
      </trkpt>
      <trkpt lat="43.92368" lon="7.43759">
        <ele>1344.641195</ele>
        <time>2022-10-18T20:43:11.583Z</time>
      </trkpt>
      <trkpt lat="43.92418" lon="7.43744">
        <ele>1347.137597</ele>
        <time>2022-10-18T20:44:17.349Z</time>
      </trkpt>
      <trkpt lat="43.92467" lon="7.43716">
        <ele>1345.5831</ele>
        <time>2022-10-18T20:45:23.164Z</time>
      </trkpt>
      <trkpt lat="43.92503" lon="7.43703">
        <ele>1343.230789</ele>
        <time>2022-10-18T20:46:13.268Z</time>
      </trkpt>
      <trkpt lat="43.92516" lon="7.4369">
        <ele>1342.21177</ele>
        <time>2022-10-18T20:46:35.915Z</time>
      </trkpt>
      <trkpt lat="43.92583" lon="7.43662">
        <ele>1337.783778</ele>
        <time>2022-10-18T20:48:14.788Z</time>
      </trkpt>
      <trkpt lat="43.92601" lon="7.43646">
        <ele>1336.340556</ele>
        <time>2022-10-18T20:48:45.362Z</time>
      </trkpt>
      <trkpt lat="43.9268" lon="7.43602">
        <ele>1327.98221</ele>
        <time>2022-10-18T20:50:45.346Z</time>
      </trkpt>
      <trkpt lat="43.92758" lon="7.43509">
        <ele>1317.490244</ele>
        <time>2022-10-18T20:53:14.135Z</time>
      </trkpt>
      <trkpt lat="43.92767" lon="7.43483">
        <ele>1314.878674</ele>
        <time>2022-10-18T20:53:45.290Z</time>
      </trkpt>
      <trkpt lat="43.92765" lon="7.43468">
        <ele>1313.515257</ele>
        <time>2022-10-18T20:54:01.583Z</time>
      </trkpt>
      <trkpt lat="43.92754" lon="7.4346">
        <ele>1311.924208</ele>
        <time>2022-10-18T20:54:20.828Z</time>
      </trkpt>
      <trkpt lat="43.92751" lon="7.43458">
        <ele>1311.511837</ele>
        <time>2022-10-18T20:54:25.912Z</time>
      </trkpt>
      <trkpt lat="43.92704" lon="7.43381">
        <ele>1302.505934</ele>
        <time>2022-10-18T20:56:13.927Z</time>
      </trkpt>
      <trkpt lat="43.92687" lon="7.43333">
        <ele>1297.684406</ele>
        <time>2022-10-18T20:57:11.727Z</time>
      </trkpt>
      <trkpt lat="43.92679" lon="7.43288">
        <ele>1293.601381</ele>
        <time>2022-10-18T20:58:02.927Z</time>
      </trkpt>
      <trkpt lat="43.9268" lon="7.43246">
        <ele>1290.025575</ele>
        <time>2022-10-18T20:58:48.964Z</time>
      </trkpt>
      <trkpt lat="43.92686" lon="7.43216">
        <ele>1287.364805</ele>
        <time>2022-10-18T20:59:22.669Z</time>
      </trkpt>
      <trkpt lat="43.92699" lon="7.4318">
        <ele>1283.882015</ele>
        <time>2022-10-18T21:00:06.981Z</time>
      </trkpt>
      <trkpt lat="43.92718" lon="7.43154">
        <ele>1280.732518</ele>
        <time>2022-10-18T21:00:46.898Z</time>
      </trkpt>
      <trkpt lat="43.92724" lon="7.43112">
        <ele>1277.043445</ele>
        <time>2022-10-18T21:01:31.694Z</time>
      </trkpt>
      <trkpt lat="43.92723" lon="7.43087">
        <ele>1274.945923</ele>
        <time>2022-10-18T21:01:55.753Z</time>
      </trkpt>
      <trkpt lat="43.92739" lon="7.42968">
        <ele>1268.651867</ele>
        <time>2022-10-18T21:03:56.575Z</time>
      </trkpt>
      <trkpt lat="43.92747" lon="7.42964">
        <ele>1268.053702</ele>
        <time>2022-10-18T21:04:07.996Z</time>
      </trkpt>
      <trkpt lat="43.92721" lon="7.42936">
        <ele>1265.709936</ele>
        <time>2022-10-18T21:04:53.015Z</time>
      </trkpt>
      <trkpt lat="43.92722" lon="7.42929">
        <ele>1265.308492</ele>
        <time>2022-10-18T21:05:00.544Z</time>
      </trkpt>
      <trkpt lat="43.92705" lon="7.42911">
        <ele>1263.741254</ele>
        <time>2022-10-18T21:05:29.820Z</time>
      </trkpt>
      <trkpt lat="43.92702" lon="7.42899">
        <ele>1263.077922</ele>
        <time>2022-10-18T21:05:42.432Z</time>
      </trkpt>
      <trkpt lat="43.92677" lon="7.42886">
        <ele>1261.396808</ele>
        <time>2022-10-18T21:06:17.584Z</time>
      </trkpt>
      <trkpt lat="43.92669" lon="7.42867">
        <ele>1260.58755</ele>
        <time>2022-10-18T21:06:37.952Z</time>
      </trkpt>
      <trkpt lat="43.92672" lon="7.42856">
        <ele>1260.132631</ele>
        <time>2022-10-18T21:06:49.521Z</time>
      </trkpt>
      <trkpt lat="43.92686" lon="7.42849">
        <ele>1259.354451</ele>
        <time>2022-10-18T21:07:08.842Z</time>
      </trkpt>
      <trkpt lat="43.92741" lon="7.42858">
        <ele>1256.435085</ele>
        <time>2022-10-18T21:08:20.662Z</time>
      </trkpt>
      <trkpt lat="43.92759" lon="7.42873">
        <ele>1255.310237</ele>
        <time>2022-10-18T21:08:48.557Z</time>
      </trkpt>
      <trkpt lat="43.92758" lon="7.4288">
        <ele>1255.026605</ele>
        <time>2022-10-18T21:08:55.680Z</time>
      </trkpt>
      <trkpt lat="43.92765" lon="7.42884">
        <ele>1254.618939</ele>
        <time>2022-10-18T21:09:05.542Z</time>
      </trkpt>
      <trkpt lat="43.92828" lon="7.42901">
        <ele>1250.136415</ele>
        <time>2022-10-18T21:10:31.700Z</time>
      </trkpt>
      <trkpt lat="43.92861" lon="7.42923">
        <ele>1246.427519</ele>
        <time>2022-10-18T21:11:23.503Z</time>
      </trkpt>
      <trkpt lat="43.9286" lon="7.42929">
        <ele>1246.004016</ele>
        <time>2022-10-18T21:11:29.323Z</time>
      </trkpt>
      <trkpt lat="43.92879" lon="7.4294">
        <ele>1244.014674</ele>
        <time>2022-10-18T21:11:57.810Z</time>
      </trkpt>
      <trkpt lat="43.92897" lon="7.42963">
        <ele>1241.618588</ele>
        <time>2022-10-18T21:12:32.949Z</time>
      </trkpt>
      <trkpt lat="43.92936" lon="7.42974">
        <ele>1237.616314</ele>
        <time>2022-10-18T21:13:32.759Z</time>
      </trkpt>
      <trkpt lat="43.92946" lon="7.42971">
        <ele>1236.631669</ele>
        <time>2022-10-18T21:13:47.895Z</time>
      </trkpt>
      <trkpt lat="43.92948" lon="7.42958">
        <ele>1235.687619</ele>
        <time>2022-10-18T21:14:02.245Z</time>
      </trkpt>
      <trkpt lat="43.92977" lon="7.42928">
        <ele>1229.934371</ele>
        <time>2022-10-18T21:14:57.874Z</time>
      </trkpt>
      <trkpt lat="43.93" lon="7.42922">
        <ele>1225.768653</ele>
        <time>2022-10-18T21:15:33.659Z</time>
      </trkpt>
      <trkpt lat="43.93027" lon="7.42891">
        <ele>1219.527217</ele>
        <time>2022-10-18T21:16:28.664Z</time>
      </trkpt>
      <trkpt lat="43.93063" lon="7.42902">
        <ele>1212.859408</ele>
        <time>2022-10-18T21:17:31.980Z</time>
      </trkpt>
      <trkpt lat="43.93091" lon="7.42853">
        <ele>1204.847426</ele>
        <time>2022-10-18T21:18:55.881Z</time>
      </trkpt>
      <trkpt lat="43.93094" lon="7.42858">
        <ele>1203.960528</ele>
        <time>2022-10-18T21:19:05.635Z</time>
      </trkpt>
      <trkpt lat="43.93101" lon="7.42852">
        <ele>1202.599734</ele>
        <time>2022-10-18T21:19:18.709Z</time>
      </trkpt>
      <trkpt lat="43.93141" lon="7.42761">
        <ele>1187.144172</ele>
        <time>2022-10-18T21:21:34.032Z</time>
      </trkpt>
      <trkpt lat="43.93146" lon="7.42725">
        <ele>1181.8057</ele>
        <time>2022-10-18T21:22:20.146Z</time>
      </trkpt>
      <trkpt lat="43.93157" lon="7.42705">
        <ele>1178.17395</ele>
        <time>2022-10-18T21:22:48.297Z</time>
      </trkpt>
      <trkpt lat="43.93163" lon="7.42681">
        <ele>1174.445013</ele>
        <time>2022-10-18T21:23:21.083Z</time>
      </trkpt>
      <trkpt lat="43.93165" lon="7.42639">
        <ele>1168.377714</ele>
        <time>2022-10-18T21:24:11.884Z</time>
      </trkpt>
      <trkpt lat="43.93195" lon="7.42578">
        <ele>1158.481643</ele>
        <time>2022-10-18T21:25:50.629Z</time>
      </trkpt>
      <trkpt lat="43.9318" lon="7.42591">
        <ele>1155.233158</ele>
        <time>2022-10-18T21:26:20.326Z</time>
      </trkpt>
      <trkpt lat="43.93205" lon="7.42552">
        <ele>1148.277523</ele>
        <time>2022-10-18T21:27:22.412Z</time>
      </trkpt>
      <trkpt lat="43.93233" lon="7.42524">
        <ele>1141.968595</ele>
        <time>2022-10-18T21:28:15.964Z</time>
      </trkpt>
      <trkpt lat="43.93211" lon="7.42529">
        <ele>1137.910178</ele>
        <time>2022-10-18T21:28:53.644Z</time>
      </trkpt>
      <trkpt lat="43.93238" lon="7.4249">
        <ele>1130.878057</ele>
        <time>2022-10-18T21:29:54.547Z</time>
      </trkpt>
      <trkpt lat="43.93262" lon="7.42426">
        <ele>1121.530227</ele>
        <time>2022-10-18T21:31:17.924Z</time>
      </trkpt>
      <trkpt lat="43.93298" lon="7.42307">
        <ele>1104.76505</ele>
        <time>2022-10-18T21:33:54.871Z</time>
      </trkpt>
      <trkpt lat="43.93293" lon="7.42294">
        <ele>1102.898198</ele>
        <time>2022-10-18T21:34:11.274Z</time>
      </trkpt>
      <trkpt lat="43.93294" lon="7.4227">
        <ele>1099.87726</ele>
        <time>2022-10-18T21:34:40.655Z</time>
      </trkpt>
      <trkpt lat="43.93312" lon="7.42253">
        <ele>1096.139655</ele>
        <time>2022-10-18T21:35:15.871Z</time>
      </trkpt>
      <trkpt lat="43.93333" lon="7.42212">
        <ele>1089.878648</ele>
        <time>2022-10-18T21:36:14.484Z</time>
      </trkpt>
      <trkpt lat="43.93347" lon="7.42172">
        <ele>1084.375728</ele>
        <time>2022-10-18T21:37:06.662Z</time>
      </trkpt>
      <trkpt lat="43.93352" lon="7.42133">
        <ele>1079.443116</ele>
        <time>2022-10-18T21:37:51.304Z</time>
      </trkpt>
      <trkpt lat="43.93379" lon="7.42052">
        <ele>1068.431366</ele>
        <time>2022-10-18T21:39:33.741Z</time>
      </trkpt>
      <trkpt lat="43.93377" lon="7.4204">
        <ele>1066.915655</ele>
        <time>2022-10-18T21:39:47.579Z</time>
      </trkpt>
      <trkpt lat="43.93387" lon="7.42029">
        <ele>1064.786351</ele>
        <time>2022-10-18T21:40:08.133Z</time>
      </trkpt>
      <trkpt lat="43.93394" lon="7.42006">
        <ele>1061.728184</ele>
        <time>2022-10-18T21:40:35.716Z</time>
      </trkpt>
      <trkpt lat="43.93392" lon="7.41988">
        <ele>1059.497775</ele>
        <time>2022-10-18T21:40:55.201Z</time>
      </trkpt>
      <trkpt lat="43.93406" lon="7.42002">
        <ele>1056.634542</ele>
        <time>2022-10-18T21:41:21.574Z</time>
      </trkpt>
      <trkpt lat="43.93407" lon="7.4199">
        <ele>1055.231279</ele>
        <time>2022-10-18T21:41:34.499Z</time>
      </trkpt>
      <trkpt lat="43.93373" lon="7.41903">
        <ele>1042.974847</ele>
        <time>2022-10-18T21:43:27.504Z</time>
      </trkpt>
      <trkpt lat="43.93373" lon="7.41888">
        <ele>1041.070477</ele>
        <time>2022-10-18T21:43:46.100Z</time>
      </trkpt>
      <trkpt lat="43.93367" lon="7.41881">
        <ele>1039.729901</ele>
        <time>2022-10-18T21:44:01.091Z</time>
      </trkpt>
      <trkpt lat="43.93367" lon="7.41875">
        <ele>1038.864157</ele>
        <time>2022-10-18T21:44:08.751Z</time>
      </trkpt>
      <trkpt lat="43.93392" lon="7.41878">
        <ele>1033.45338</ele>
        <time>2022-10-18T21:44:48.904Z</time>
      </trkpt>
      <trkpt lat="43.93383" lon="7.41861">
        <ele>1030.117725</ele>
        <time>2022-10-18T21:45:18.602Z</time>
      </trkpt>
      <trkpt lat="43.93364" lon="7.41846">
        <ele>1025.308076</ele>
        <time>2022-10-18T21:45:55.181Z</time>
      </trkpt>
      <trkpt lat="43.93365" lon="7.41841">
        <ele>1024.625239</ele>
        <time>2022-10-18T21:46:02.491Z</time>
      </trkpt>
      <trkpt lat="43.93376" lon="7.41841">
        <ele>1022.164539</ele>
        <time>2022-10-18T21:46:25.577Z</time>
      </trkpt>
      <trkpt lat="43.93374" lon="7.41833">
        <ele>1020.869924</ele>
        <time>2022-10-18T21:46:35.425Z</time>
      </trkpt>
      <trkpt lat="43.93385" lon="7.41834">
        <ele>1018.356609</ele>
        <time>2022-10-18T21:46:53.347Z</time>
      </trkpt>
      <trkpt lat="43.93358" lon="7.41815">
        <ele>1011.493986</ele>
        <time>2022-10-18T21:47:53.100Z</time>
      </trkpt>
      <trkpt lat="43.93339" lon="7.41792">
        <ele>1006.097716</ele>
        <time>2022-10-18T21:48:40.404Z</time>
      </trkpt>
      <trkpt lat="43.93356" lon="7.4179">
        <ele>1002.459588</ele>
        <time>2022-10-18T21:49:10.224Z</time>
      </trkpt>
      <trkpt lat="43.93343" lon="7.41776">
        <ele>998.770284</ele>
        <time>2022-10-18T21:49:41.604Z</time>
      </trkpt>
      <trkpt lat="43.93346" lon="7.41769">
        <ele>997.364906</ele>
        <time>2022-10-18T21:49:52.322Z</time>
      </trkpt>
      <trkpt lat="43.93336" lon="7.41758">
        <ele>994.195671</ele>
        <time>2022-10-18T21:50:19.202Z</time>
      </trkpt>
      <trkpt lat="43.93344" lon="7.41757">
        <ele>992.263474</ele>
        <time>2022-10-18T21:50:39.075Z</time>
      </trkpt>
      <trkpt lat="43.9334" lon="7.4175">
        <ele>990.696541</ele>
        <time>2022-10-18T21:50:51.732Z</time>
      </trkpt>
      <trkpt lat="43.9334" lon="7.41737">
        <ele>988.473977</ele>
        <time>2022-10-18T21:51:09.313Z</time>
      </trkpt>
      <trkpt lat="43.93329" lon="7.41728">
        <ele>985.396594</ele>
        <time>2022-10-18T21:51:32.306Z</time>
      </trkpt>
      <trkpt lat="43.93331" lon="7.41724">
        <ele>984.554831</ele>
        <time>2022-10-18T21:51:41.557Z</time>
      </trkpt>
      <trkpt lat="43.93343" lon="7.4173">
        <ele>981.480053</ele>
        <time>2022-10-18T21:52:06.860Z</time>
      </trkpt>
      <trkpt lat="43.93345" lon="7.41723">
        <ele>980.227602</ele>
        <time>2022-10-18T21:52:16.436Z</time>
      </trkpt>
      <trkpt lat="43.93336" lon="7.41701">
        <ele>975.598315</ele>
        <time>2022-10-18T21:52:57.572Z</time>
      </trkpt>
      <trkpt lat="43.93343" lon="7.41702">
        <ele>973.76256</ele>
        <time>2022-10-18T21:53:09.745Z</time>
      </trkpt>
      <trkpt lat="43.93325" lon="7.4168">
        <ele>967.924758</ele>
        <time>2022-10-18T21:53:55.208Z</time>
      </trkpt>
      <trkpt lat="43.93342" lon="7.41679">
        <ele>963.791276</ele>
        <time>2022-10-18T21:54:26.471Z</time>
      </trkpt>
      <trkpt lat="43.93331" lon="7.41666">
        <ele>960.204723</ele>
        <time>2022-10-18T21:54:54.087Z</time>
      </trkpt>
      <trkpt lat="43.93309" lon="7.41656">
        <ele>955.041905</ele>
        <time>2022-10-18T21:55:36.165Z</time>
      </trkpt>
      <trkpt lat="43.93321" lon="7.41642">
        <ele>952.176504</ele>
        <time>2022-10-18T21:56:06.291Z</time>
      </trkpt>
      <trkpt lat="43.93309" lon="7.41635">
        <ele>949.664933</ele>
        <time>2022-10-18T21:56:31.604Z</time>
      </trkpt>
      <trkpt lat="43.93298" lon="7.4164">
        <ele>947.593092</ele>
        <time>2022-10-18T21:56:48.641Z</time>
      </trkpt>
      <trkpt lat="43.93296" lon="7.41617">
        <ele>944.461423</ele>
        <time>2022-10-18T21:57:25.652Z</time>
      </trkpt>
      <trkpt lat="43.93303" lon="7.41607">
        <ele>942.663544</ele>
        <time>2022-10-18T21:57:41.361Z</time>
      </trkpt>
      <trkpt lat="43.93287" lon="7.41606">
        <ele>939.686944</ele>
        <time>2022-10-18T21:58:06.713Z</time>
      </trkpt>
      <trkpt lat="43.93286" lon="7.41595">
        <ele>938.162805</ele>
        <time>2022-10-18T21:58:23.217Z</time>
      </trkpt>
      <trkpt lat="43.93294" lon="7.41578">
        <ele>935.343102</ele>
        <time>2022-10-18T21:58:48.333Z</time>
      </trkpt>
      <trkpt lat="43.93283" lon="7.41573">
        <ele>933.293678</ele>
        <time>2022-10-18T21:59:04.591Z</time>
      </trkpt>
      <trkpt lat="43.93289" lon="7.41564">
        <ele>931.711708</ele>
        <time>2022-10-18T21:59:18.806Z</time>
      </trkpt>
      <trkpt lat="43.93275" lon="7.41557">
        <ele>928.858711</ele>
        <time>2022-10-18T21:59:43.886Z</time>
      </trkpt>
      <trkpt lat="43.93279" lon="7.41553">
        <ele>928.009541</ele>
        <time>2022-10-18T21:59:50.870Z</time>
      </trkpt>
      <trkpt lat="43.93273" lon="7.41545">
        <ele>926.39875</ele>
        <time>2022-10-18T22:00:03.321Z</time>
      </trkpt>
      <trkpt lat="43.93275" lon="7.41537">
        <ele>925.268179</ele>
        <time>2022-10-18T22:00:13.042Z</time>
      </trkpt>
      <trkpt lat="43.93259" lon="7.41534">
        <ele>922.359369</ele>
        <time>2022-10-18T22:00:35.311Z</time>
      </trkpt>
      <trkpt lat="43.93251" lon="7.41501">
        <ele>918.918741</ele>
        <time>2022-10-18T22:01:13.150Z</time>
      </trkpt>
      <trkpt lat="43.93272" lon="7.41493">
        <ele>915.979078</ele>
        <time>2022-10-18T22:01:45.528Z</time>
      </trkpt>
      <trkpt lat="43.93306" lon="7.41495">
        <ele>911.492396</ele>
        <time>2022-10-18T22:02:36.119Z</time>
      </trkpt>
      <trkpt lat="43.93335" lon="7.41508">
        <ele>907.373092</ele>
        <time>2022-10-18T22:03:21.382Z</time>
      </trkpt>
      <trkpt lat="43.93381" lon="7.41512">
        <ele>901.372538</ele>
        <time>2022-10-18T22:04:29.906Z</time>
      </trkpt>
      <trkpt lat="43.93433" lon="7.41551">
        <ele>892.270573</ele>
        <time>2022-10-18T22:06:01.921Z</time>
      </trkpt>
      <trkpt lat="43.93436" lon="7.41545">
        <ele>891.38333</ele>
        <time>2022-10-18T22:06:09.792Z</time>
      </trkpt>
      <trkpt lat="43.93444" lon="7.4156">
        <ele>889.076839</ele>
        <time>2022-10-18T22:06:31.496Z</time>
      </trkpt>
      <trkpt lat="43.9347" lon="7.4154">
        <ele>884.072729</ele>
        <time>2022-10-18T22:07:19.108Z</time>
      </trkpt>
      <trkpt lat="43.93509" lon="7.41535">
        <ele>877.478151</ele>
        <time>2022-10-18T22:08:24.478Z</time>
      </trkpt>
      <trkpt lat="43.93555" lon="7.41538">
        <ele>869.730995</ele>
        <time>2022-10-18T22:09:38.236Z</time>
      </trkpt>
      <trkpt lat="43.93608" lon="7.41563">
        <ele>861.266824</ele>
        <time>2022-10-18T22:11:07.577Z</time>
      </trkpt>
      <trkpt lat="43.93626" lon="7.41558">
        <ele>858.634024</ele>
        <time>2022-10-18T22:11:40.772Z</time>
      </trkpt>
      <trkpt lat="43.93606" lon="7.41543">
        <ele>855.333989</ele>
        <time>2022-10-18T22:12:19.816Z</time>
      </trkpt>
      <trkpt lat="43.93594" lon="7.4152">
        <ele>852.335826</ele>
        <time>2022-10-18T22:12:49.441Z</time>
      </trkpt>
      <trkpt lat="43.93602" lon="7.41513">
        <ele>850.944724</ele>
        <time>2022-10-18T22:13:04.022Z</time>
      </trkpt>
      <trkpt lat="43.93617" lon="7.4152">
        <ele>848.715673</ele>
        <time>2022-10-18T22:13:27.769Z</time>
      </trkpt>
      <trkpt lat="43.9362" lon="7.41509">
        <ele>847.457199</ele>
        <time>2022-10-18T22:13:39.855Z</time>
      </trkpt>
      <trkpt lat="43.93632" lon="7.41514">
        <ele>845.666293</ele>
        <time>2022-10-18T22:13:58.195Z</time>
      </trkpt>
      <trkpt lat="43.93636" lon="7.4151">
        <ele>844.988504</ele>
        <time>2022-10-18T22:14:07.305Z</time>
      </trkpt>
      <trkpt lat="43.93662" lon="7.41524">
        <ele>840.925945</ele>
        <time>2022-10-18T22:14:45.786Z</time>
      </trkpt>
      <trkpt lat="43.93665" lon="7.41534">
        <ele>839.729572</ele>
        <time>2022-10-18T22:15:00.163Z</time>
      </trkpt>
      <trkpt lat="43.93673" lon="7.41527">
        <ele>838.281068</ele>
        <time>2022-10-18T22:15:13.318Z</time>
      </trkpt>
      <trkpt lat="43.93714" lon="7.41555">
        <ele>831.499565</ele>
        <time>2022-10-18T22:16:16.026Z</time>
      </trkpt>
      <trkpt lat="43.93773" lon="7.4164">
        <ele>818.758808</ele>
        <time>2022-10-18T22:18:32.473Z</time>
      </trkpt>
      <trkpt lat="43.93772" lon="7.41635">
        <ele>818.189665</ele>
        <time>2022-10-18T22:18:40.434Z</time>
      </trkpt>
      <trkpt lat="43.93776" lon="7.41637">
        <ele>817.538102</ele>
        <time>2022-10-18T22:18:47.995Z</time>
      </trkpt>
      <trkpt lat="43.93775" lon="7.4162">
        <ele>815.674277</ele>
        <time>2022-10-18T22:19:09.753Z</time>
      </trkpt>
      <trkpt lat="43.93763" lon="7.41594">
        <ele>810.991139</ele>
        <time>2022-10-18T22:19:50.711Z</time>
      </trkpt>
      <trkpt lat="43.93767" lon="7.41589">
        <ele>809.804706</ele>
        <time>2022-10-18T22:19:59.635Z</time>
      </trkpt>
      <trkpt lat="43.93761" lon="7.41579">
        <ele>807.648162</ele>
        <time>2022-10-18T22:20:16.006Z</time>
      </trkpt>
      <trkpt lat="43.93756" lon="7.41546">
        <ele>802.194978</ele>
        <time>2022-10-18T22:20:59.039Z</time>
      </trkpt>
      <trkpt lat="43.93763" lon="7.41535">
        <ele>799.784099</ele>
        <time>2022-10-18T22:21:16.565Z</time>
      </trkpt>
      <trkpt lat="43.93745" lon="7.41482">
        <ele>790.215721</ele>
        <time>2022-10-18T22:22:34.744Z</time>
      </trkpt>
      <trkpt lat="43.93748" lon="7.41476">
        <ele>789.137447</ele>
        <time>2022-10-18T22:22:45.353Z</time>
      </trkpt>
      <trkpt lat="43.93743" lon="7.41467">
        <ele>787.137359</ele>
        <time>2022-10-18T22:23:00.370Z</time>
      </trkpt>
      <trkpt lat="43.93725" lon="7.41436">
        <ele>780.666667</ele>
        <time>2022-10-18T22:24:00.549Z</time>
      </trkpt>
      <trkpt lat="43.93708" lon="7.41428">
        <ele>776.580055</ele>
        <time>2022-10-18T22:24:33.220Z</time>
      </trkpt>
      <trkpt lat="43.93667" lon="7.4139">
        <ele>768.505791</ele>
        <time>2022-10-18T22:26:18.832Z</time>
      </trkpt>
      <trkpt lat="43.93668" lon="7.41385">
        <ele>767.89968</ele>
        <time>2022-10-18T22:26:28.425Z</time>
      </trkpt>
      <trkpt lat="43.93674" lon="7.41361">
        <ele>765.333457</ele>
        <time>2022-10-18T22:26:57.307Z</time>
      </trkpt>
      <trkpt lat="43.93645" lon="7.41318">
        <ele>759.204635</ele>
        <time>2022-10-18T22:28:03.805Z</time>
      </trkpt>
      <trkpt lat="43.9365" lon="7.41306">
        <ele>757.794438</ele>
        <time>2022-10-18T22:28:19.082Z</time>
      </trkpt>
      <trkpt lat="43.93632" lon="7.41277">
        <ele>753.880401</ele>
        <time>2022-10-18T22:28:55.456Z</time>
      </trkpt>
      <trkpt lat="43.93592" lon="7.41248">
        <ele>748.226742</ele>
        <time>2022-10-18T22:29:54.073Z</time>
      </trkpt>
      <trkpt lat="43.93604" lon="7.41229">
        <ele>748.838626</ele>
        <time>2022-10-18T22:30:15.882Z</time>
      </trkpt>
      <trkpt lat="43.93615" lon="7.41226">
        <ele>749.23522</ele>
        <time>2022-10-18T22:30:32.479Z</time>
      </trkpt>
      <trkpt lat="43.9367" lon="7.41246">
        <ele>751.162423</ele>
        <time>2022-10-18T22:31:43.122Z</time>
      </trkpt>
      <trkpt lat="43.93685" lon="7.41246">
        <ele>751.682143</ele>
        <time>2022-10-18T22:32:02.362Z</time>
      </trkpt>
      <trkpt lat="43.93691" lon="7.41236">
        <ele>751.997837</ele>
        <time>2022-10-18T22:32:20.743Z</time>
      </trkpt>
      <trkpt lat="43.93725" lon="7.41243">
        <ele>753.163512</ele>
        <time>2022-10-18T22:33:12.122Z</time>
      </trkpt>
      <trkpt lat="43.93766" lon="7.41266">
        <ele>755.872884</ele>
        <time>2022-10-18T22:34:22.421Z</time>
      </trkpt>
      <trkpt lat="43.93815" lon="7.41304">
        <ele>762.39613</ele>
        <time>2022-10-18T22:35:57.771Z</time>
      </trkpt>
      <trkpt lat="43.93821" lon="7.41303">
        <ele>763.08403</ele>
        <time>2022-10-18T22:36:13.404Z</time>
      </trkpt>
      <trkpt lat="43.9387" lon="7.41317">
        <ele>768.897992</ele>
        <time>2022-10-18T22:37:46.106Z</time>
      </trkpt>
      <trkpt lat="43.93899" lon="7.4131">
        <ele>772.379786</ele>
        <time>2022-10-18T22:38:35.381Z</time>
      </trkpt>
      <trkpt lat="43.93929" lon="7.413">
        <ele>775.037317</ele>
        <time>2022-10-18T22:39:25.102Z</time>
      </trkpt>
      <trkpt lat="43.93945" lon="7.41284">
        <ele>775.037317</ele>
        <time>2022-10-18T22:39:56.928Z</time>
      </trkpt>
      <trkpt lat="43.9396" lon="7.41284">
        <ele>775.037317</ele>
        <time>2022-10-18T22:40:19.085Z</time>
      </trkpt>
      <trkpt lat="43.94" lon="7.41242">
        <ele>775.037317</ele>
        <time>2022-10-18T22:41:37.234Z</time>
      </trkpt>
      <trkpt lat="43.94053" lon="7.4123">
        <ele>775.037317</ele>
        <time>2022-10-18T22:42:53.700Z</time>
      </trkpt>
      <trkpt lat="43.94075" lon="7.41227">
        <ele>775.037317</ele>
        <time>2022-10-18T22:43:24.158Z</time>
      </trkpt>
      <trkpt lat="43.9411" lon="7.41233">
        <ele>775.037317</ele>
        <time>2022-10-18T22:44:06.010Z</time>
      </trkpt>
      <trkpt lat="43.94109" lon="7.41254">
        <ele>775.037317</ele>
        <time>2022-10-18T22:44:24.703Z</time>
      </trkpt>
    </trkseg>
  </trk>
</gpx>